createdAt,value
2019-01-30T00:13:08.920Z,-3.03
2019-01-30T00:41:41.443Z,-3.15
2019-01-30T01:10:19.991Z,-3.35
2019-01-30T01:38:55.201Z,-3.63
2019-01-30T02:07:25.534Z,-3.69
2019-01-30T02:36:00.635Z,-3.93
2019-01-30T05:01:49.577Z,-4.85
2019-01-30T05:30:11.746Z,-5.07
2019-01-30T05:58:46.447Z,-5.43
2019-01-30T06:27:24.302Z,-5.34
2019-01-30T06:56:03.420Z,-4.99
2019-01-30T07:24:44.440Z,-4.6
2019-01-30T07:53:19.479Z,-4.12
2019-01-30T08:21:59.349Z,-3.64
2019-01-30T08:50:36.177Z,-2.82
2019-01-30T09:19:17.716Z,-2.05
2019-01-30T09:47:56.618Z,-1
2019-01-30T10:16:40.408Z,-0.2
2019-01-30T10:45:23.408Z,0.43
2019-01-30T11:14:01.346Z,1.09
2019-01-30T11:42:38.281Z,1.2
2019-01-30T12:11:15.394Z,1.72
2019-01-30T12:39:55.215Z,1.87
2019-01-30T13:08:36.497Z,2.28
2019-01-30T13:37:13.800Z,2.37
2019-01-30T14:05:47.971Z,2.33
2019-01-30T14:34:25.363Z,2.17
2019-01-30T15:03:03.627Z,2.18
2019-01-30T15:31:39.811Z,1.96
2019-01-30T16:00:19.538Z,1.97
2019-01-30T16:28:58.420Z,1.77
2019-01-30T16:57:33.727Z,1.74
2019-01-30T17:26:08.420Z,1.7
2019-01-30T17:54:46.401Z,1.85
2019-01-30T18:23:23.604Z,1.59
2019-01-30T18:51:59.573Z,1.11
2019-01-30T19:20:30.292Z,1.22
2019-01-30T19:49:11.507Z,1.72
2019-01-30T20:17:46.589Z,1.92
2019-01-30T20:46:23.752Z,2.02
2019-01-30T21:15:02.221Z,1.91
2019-01-30T21:43:39.195Z,1.82
2019-01-30T22:12:10.750Z,1.68
2019-01-30T22:40:49.864Z,1.48
2019-01-30T23:09:21.294Z,1.45
2019-01-30T23:37:59.706Z,1.29
